sensor_id;sensor_type;location;lat;lon;timestamp;pressure;altitude;pressure_sealevel;temperature;humidity
67931;BME280;63902;52.000;5.954;2023-04-23T00:00:25;100417.28;;;7.29;100.00
67931;BME280;63902;52.000;5.954;2023-04-23T00:01:26;100414.75;;;7.26;100.00
67931;BME280;63902;52.000;5.954;2023-04-23T00:02:28;100415.66;;;7.25;100.00
67931;BME280;63902;52.000;5.954;2023-04-23T00:03:32;100413.94;;;7.24;100.00
67931;BME280;63902;52.000;5.954;2023-04-23T00:04:35;100407.00;;;7.21;100.00
67931;BME280;63902;52.000;5.954;2023-04-23T00:05:36;100418.47;;;7.20;100.00
67931;BME280;63902;52.000;5.954;2023-04-23T00:06:38;100405.66;;;7.08;100.00
67931;BME280;63902;52.000;5.954;2023-04-23T00:07:39;100419.47;;;7.16;100.00
67931;BME280;63902;52.000;5.954;2023-04-23T00:08:42;100415.97;;;7.15;100.00
67931;BME280;63902;52.000;5.954;2023-04-23T00:09:43;100421.28;;;7.14;100.00
67931;BME280;63902;52.000;5.954;2023-04-23T00:10:45;100414.28;;;7.13;100.00
67931;BME280;63902;52.000;5.954;2023-04-23T00:11:46;100414.38;;;7.11;100.00
67931;BME280;63902;52.000;5.954;2023-04-23T00:12:47;100416.00;;;7.14;100.00
67931;BME280;63902;52.000;5.954;2023-04-23T00:13:48;100416.13;;;7.11;100.00
67931;BME280;63902;52.000;5.954;2023-04-23T00:14:49;100407.50;;;7.06;100.00
67931;BME280;63902;52.000;5.954;2023-04-23T00:15:50;100410.94;;;7.08;100.00
67931;BME280;63902;52.000;5.954;2023-04-23T00:16:51;100415.31;;;7.09;100.00
67931;BME280;63902;52.000;5.954;2023-04-23T00:17:52;100417.00;;;7.11;100.00
67931;BME280;63902;52.000;5.954;2023-04-23T00:18:53;100414.44;;;7.08;100.00
67931;BME280;63902;52.000;5.954;2023-04-23T00:19:53;100408.38;;;7.06;100.00
67931;BME280;63902;52.000;5.954;2023-04-23T00:20:54;100411.78;;;7.08;100.00
67931;BME280;63902;52.000;5.954;2023-04-23T00:21:54;100414.50;;;7.07;100.00
67931;BME280;63902;52.000;5.954;2023-04-23T00:22:55;100413.66;;;7.06;100.00
67931;BME280;63902;52.000;5.954;2023-04-23T00:23:56;100404.88;;;7.06;100.00
67931;BME280;63902;52.000;5.954;2023-04-23T00:24:57;100398.91;;;7.01;100.00
67931;BME280;63902;52.000;5.954;2023-04-23T00:25:58;100404.06;;;7.04;100.00
67931;BME280;63902;52.000;5.954;2023-04-23T00:26:58;100398.03;;;7.00;100.00
67931;BME280;63902;52.000;5.954;2023-04-23T00:27:59;100396.19;;;7.02;100.00
67931;BME280;63902;52.000;5.954;2023-04-23T00:28:59;100400.56;;;7.03;100.00
67931;BME280;63902;52.000;5.954;2023-04-23T00:30:00;100400.56;;;7.03;100.00
67931;BME280;63902;52.000;5.954;2023-04-23T00:31:00;100396.16;;;7.04;100.00
67931;BME280;63902;52.000;5.954;2023-04-23T00:32:01;100392.75;;;7.00;100.00
67931;BME280;63902;52.000;5.954;2023-04-23T00:33:01;100406.69;;;7.04;100.00
67931;BME280;63902;52.000;5.954;2023-04-23T00:34:02;100402.28;;;7.04;100.00
67931;BME280;63902;52.000;5.954;2023-04-23T00:35:02;100384.13;;;6.95;100.00
67931;BME280;63902;52.000;5.954;2023-04-23T00:36:03;100400.59;;;7.02;100.00
67931;BME280;63902;52.000;5.954;2023-04-23T00:37:04;100396.19;;;7.02;100.00
67931;BME280;63902;52.000;5.954;2023-04-23T00:38:04;100403.25;;;7.02;100.00
67931;BME280;63902;52.000;5.954;2023-04-23T00:39:06;100401.53;;;7.01;100.00
67931;BME280;63902;52.000;5.954;2023-04-23T00:40:08;100400.72;;;6.99;100.00
67931;BME280;63902;52.000;5.954;2023-04-23T00:41:08;100397.25;;;6.97;100.00
67931;BME280;63902;52.000;5.954;2023-04-23T00:42:09;100398.19;;;6.95;100.00
67931;BME280;63902;52.000;5.954;2023-04-23T00:43:10;100398.22;;;6.94;100.00
67931;BME280;63902;52.000;5.954;2023-04-23T00:44:10;100401.78;;;6.93;100.00
67931;BME280;63902;52.000;5.954;2023-04-23T00:45:11;100400.91;;;6.92;100.00
67931;BME280;63902;52.000;5.954;2023-04-23T00:46:12;100397.56;;;6.87;100.00
67931;BME280;63902;52.000;5.954;2023-04-23T00:47:13;100399.28;;;6.88;100.00
67931;BME280;63902;52.000;5.954;2023-04-23T00:48:15;100396.72;;;6.87;100.00
67931;BME280;63902;52.000;5.954;2023-04-23T00:49:16;100389.69;;;6.86;100.00
67931;BME280;63902;52.000;5.954;2023-04-23T00:50:18;100385.47;;;6.80;100.00
67931;BME280;63902;52.000;5.954;2023-04-23T00:51:20;100390.63;;;6.85;100.00
67931;BME280;63902;52.000;5.954;2023-04-23T00:52:20;100388.91;;;6.84;100.00
67931;BME280;63902;52.000;5.954;2023-04-23T00:53:21;100380.31;;;6.77;100.00
67931;BME280;63902;52.000;5.954;2023-04-23T00:54:23;100395.16;;;6.80;100.00
67931;BME280;63902;52.000;5.954;2023-04-23T00:55:23;100391.69;;;6.79;100.00
67931;BME280;63902;52.000;5.954;2023-04-23T00:56:25;100394.31;;;6.79;100.00
67931;BME280;63902;52.000;5.954;2023-04-23T00:57:26;100391.72;;;6.78;100.00
67931;BME280;63902;52.000;5.954;2023-04-23T00:58:27;100381.28;;;6.75;100.00
67931;BME280;63902;52.000;5.954;2023-04-23T00:59:28;100388.28;;;6.76;100.00
67931;BME280;63902;52.000;5.954;2023-04-23T01:00:29;100384.06;;;6.70;100.00
67931;BME280;63902;52.000;5.954;2023-04-23T01:01:30;100386.63;;;6.71;100.00
67931;BME280;63902;52.000;5.954;2023-04-23T01:02:30;100387.56;;;6.70;100.00
67931;BME280;63902;52.000;5.954;2023-04-23T01:03:34;100378.19;;;6.62;100.00
67931;BME280;63902;52.000;5.954;2023-04-23T01:04:35;100373.72;;;6.64;100.00
67931;BME280;63902;52.000;5.954;2023-04-23T01:05:36;100372.94;;;6.60;100.00
67931;BME280;63902;52.000;5.954;2023-04-23T01:06:37;100386.00;;;6.65;100.00
67931;BME280;63902;52.000;5.954;2023-04-23T01:07:38;100384.28;;;6.64;100.00
67931;BME280;63902;52.000;5.954;2023-04-23T01:08:41;100386.94;;;6.62;100.00
67931;BME280;63902;52.000;5.954;2023-04-23T01:09:44;100375.66;;;6.59;100.00
67931;BME280;63902;52.000;5.954;2023-04-23T01:10:45;100380.84;;;6.60;100.00
67931;BME280;63902;52.000;5.954;2023-04-23T01:11:47;100379.06;;;6.61;100.00
67931;BME280;63902;52.000;5.954;2023-04-23T01:12:49;100377.44;;;6.58;100.00
67931;BME280;63902;52.000;5.954;2023-04-23T01:13:49;100375.66;;;6.59;100.00
67931;BME280;63902;52.000;5.954;2023-04-23T01:14:50;100373.91;;;6.58;100.00
67931;BME280;63902;52.000;5.954;2023-04-23T01:15:51;100379.25;;;6.56;100.00
67931;BME280;63902;52.000;5.954;2023-04-23T01:16:51;100373.97;;;6.56;100.00
67931;BME280;63902;52.000;5.954;2023-04-23T01:17:52;100374.94;;;6.54;100.00
67931;BME280;63902;52.000;5.954;2023-04-23T01:18:52;100375.84;;;6.53;100.00
67931;BME280;63902;52.000;5.954;2023-04-23T01:19:53;100368.91;;;6.50;100.00
67931;BME280;63902;52.000;5.954;2023-04-23T01:20:54;100376.81;;;6.50;100.00
67931;BME280;63902;52.000;5.954;2023-04-23T01:21:55;100378.63;;;6.48;100.00
67931;BME280;63902;52.000;5.954;2023-04-23T01:22:57;100373.38;;;6.46;100.00
67931;BME280;63902;52.000;5.954;2023-04-23T01:23:58;100358.72;;;6.38;100.00
67931;BME280;63902;52.000;5.954;2023-04-23T01:24:58;100366.41;;;6.45;100.00
67931;BME280;63902;52.000;5.954;2023-04-23T01:25:59;100354.31;;;6.38;100.00
67931;BME280;63902;52.000;5.954;2023-04-23T01:27:00;100368.19;;;6.45;100.00
67931;BME280;63902;52.000;5.954;2023-04-23T01:28:00;100371.69;;;6.44;100.00
67931;BME280;63902;52.000;5.954;2023-04-23T01:29:01;100361.22;;;6.42;100.00
67931;BME280;63902;52.000;5.954;2023-04-23T01:30:03;100363.88;;;6.42;100.00
67931;BME280;63902;52.000;5.954;2023-04-23T01:31:04;100361.16;;;6.44;100.00
67931;BME280;63902;52.000;5.954;2023-04-23T01:32:06;100364.69;;;6.44;100.00
67931;BME280;63902;52.000;5.954;2023-04-23T01:33:07;100364.69;;;6.44;100.00
67931;BME280;63902;52.000;5.954;2023-04-23T01:34:07;100356.78;;;6.44;100.00
67931;BME280;63902;52.000;5.954;2023-04-23T01:35:08;100357.63;;;6.45;100.00
67931;BME280;63902;52.000;5.954;2023-04-23T01:36:09;100359.41;;;6.44;100.00
67931;BME280;63902;52.000;5.954;2023-04-23T01:37:10;100356.78;;;6.44;100.00
67931;BME280;63902;52.000;5.954;2023-04-23T01:38:13;100351.50;;;6.44;100.00
67931;BME280;63902;52.000;5.954;2023-04-23T01:39:13;100356.78;;;6.44;100.00
67931;BME280;63902;52.000;5.954;2023-04-23T01:40:14;100350.63;;;6.44;100.00
67931;BME280;63902;52.000;5.954;2023-04-23T01:41:14;100346.25;;;6.44;100.00
67931;BME280;63902;52.000;5.954;2023-04-23T01:42:15;100348.00;;;6.44;100.00
67931;BME280;63902;52.000;5.954;2023-04-23T01:43:16;100351.50;;;6.44;100.00
67931;BME280;63902;52.000;5.954;2023-04-23T01:44:16;100347.09;;;6.45;100.00
67931;BME280;63902;52.000;5.954;2023-04-23T01:45:17;100355.00;;;6.45;100.00
67931;BME280;63902;52.000;5.954;2023-04-23T01:46:19;100342.69;;;6.45;100.00
67931;BME280;63902;52.000;5.954;2023-04-23T01:47:20;100351.44;;;6.46;100.00
67931;BME280;63902;52.000;5.954;2023-04-23T01:48:20;100351.41;;;6.47;100.00
67931;BME280;63902;52.000;5.954;2023-04-23T01:49:21;100348.72;;;6.49;100.00
67931;BME280;63902;52.000;5.954;2023-04-23T01:50:21;100347.00;;;6.48;100.00
67931;BME280;63902;52.000;5.954;2023-04-23T01:51:22;100347.84;;;6.48;100.00
67931;BME280;63902;52.000;5.954;2023-04-23T01:52:22;100348.72;;;6.49;100.00
67931;BME280;63902;52.000;5.954;2023-04-23T01:53:24;100342.69;;;6.45;100.00
67931;BME280;63902;52.000;5.954;2023-04-23T01:54:25;100344.31;;;6.49;100.00
67931;BME280;63902;52.000;5.954;2023-04-23T01:55:25;100343.41;;;6.50;100.00
67931;BME280;63902;52.000;5.954;2023-04-23T01:56:27;100344.25;;;6.51;100.00
67931;BME280;63902;52.000;5.954;2023-04-23T01:57:28;100345.13;;;6.52;100.00
67931;BME280;63902;52.000;5.954;2023-04-23T01:58:28;100336.31;;;6.53;100.00
67931;BME280;63902;52.000;5.954;2023-04-23T01:59:29;100346.81;;;6.54;100.00
67931;BME280;63902;52.000;5.954;2023-04-23T02:00:29;100345.94;;;6.54;100.00
67931;BME280;63902;52.000;5.954;2023-04-23T02:01:40;100340.66;;;6.54;100.00
67931;BME280;63902;52.000;5.954;2023-04-23T02:02:42;100340.66;;;6.54;100.00
67931;BME280;63902;52.000;5.954;2023-04-23T02:03:43;100337.22;;;6.52;100.00
67931;BME280;63902;52.000;5.954;2023-04-23T02:04:44;100336.38;;;6.51;100.00
67931;BME280;63902;52.000;5.954;2023-04-23T02:05:44;100336.41;;;6.49;100.00
67931;BME280;63902;52.000;5.954;2023-04-23T02:06:47;100339.91;;;6.50;100.00
67931;BME280;63902;52.000;5.954;2023-04-23T02:07:49;100340.81;;;6.49;100.00
67931;BME280;63902;52.000;5.954;2023-04-23T02:08:51;100334.69;;;6.48;100.00
67931;BME280;63902;52.000;5.954;2023-04-23T02:09:52;100337.38;;;6.47;100.00
67931;BME280;63902;52.000;5.954;2023-04-23T02:10:52;100330.38;;;6.46;100.00
67931;BME280;63902;52.000;5.954;2023-04-23T02:11:53;100332.25;;;6.42;100.00
67931;BME280;63902;52.000;5.954;2023-04-23T02:12:53;100337.47;;;6.44;100.00
67931;BME280;63902;52.000;5.954;2023-04-23T02:13:54;100333.19;;;6.41;100.00
67931;BME280;63902;52.000;5.954;2023-04-23T02:14:54;100325.28;;;6.41;100.00
67931;BME280;63902;52.000;5.954;2023-04-23T02:15:55;100325.34;;;6.38;100.00
67931;BME280;63902;52.000;5.954;2023-04-23T02:16:55;100290.03;;;6.17;100.00
67931;BME280;63902;52.000;5.954;2023-04-23T02:17:55;100328.03;;;6.37;100.00
67931;BME280;63902;52.000;5.954;2023-04-23T02:18:56;100310.69;;;6.30;100.00
67931;BME280;63902;52.000;5.954;2023-04-23T02:19:57;100312.44;;;6.31;100.00
67931;BME280;63902;52.000;5.954;2023-04-23T02:20:57;100332.38;;;6.38;100.00
67931;BME280;63902;52.000;5.954;2023-04-23T02:21:57;100320.28;;;6.32;100.00
67931;BME280;63902;52.000;5.954;2023-04-23T02:22:58;100327.19;;;6.36;100.00
67931;BME280;63902;52.000;5.954;2023-04-23T02:24:00;100329.81;;;6.36;100.00
67931;BME280;63902;52.000;5.954;2023-04-23T02:25:00;100340.25;;;6.39;100.00
67931;BME280;63902;52.000;5.954;2023-04-23T02:26:01;100323.81;;;6.31;100.00
67931;BME280;63902;52.000;5.954;2023-04-23T02:27:02;100327.97;;;6.38;100.00
67931;BME280;63902;52.000;5.954;2023-04-23T02:28:02;100300.34;;;6.23;100.00
67931;BME280;63902;52.000;5.954;2023-04-23T02:29:03;100327.09;;;6.39;100.00
67931;BME280;63902;52.000;5.954;2023-04-23T02:30:04;100306.22;;;6.33;100.00
67931;BME280;63902;52.000;5.954;2023-04-23T02:31:05;100327.84;;;6.43;100.00
67931;BME280;63902;52.000;5.954;2023-04-23T02:32:05;100318.38;;;6.37;100.00
67931;BME280;63902;52.000;5.954;2023-04-23T02:33:06;100323.50;;;6.42;100.00
67931;BME280;63902;52.000;5.954;2023-04-23T02:34:06;100329.66;;;6.41;100.00
67931;BME280;63902;52.000;5.954;2023-04-23T02:35:07;100326.13;;;6.42;100.00
67931;BME280;63902;52.000;5.954;2023-04-23T02:36:08;100322.81;;;6.35;100.00
67931;BME280;63902;52.000;5.954;2023-04-23T02:37:08;100336.56;;;6.45;100.00
67931;BME280;63902;52.000;5.954;2023-04-23T02:38:09;100333.00;;;6.46;100.00
67931;BME280;63902;52.000;5.954;2023-04-23T02:39:11;100336.50;;;6.46;100.00
67931;BME280;63902;52.000;5.954;2023-04-23T02:40:11;100333.00;;;6.46;100.00
67931;BME280;63902;52.000;5.954;2023-04-23T02:41:12;100332.06;;;6.48;100.00
67931;BME280;63902;52.000;5.954;2023-04-23T02:42:12;100328.50;;;6.49;100.00
67931;BME280;63902;52.000;5.954;2023-04-23T02:43:13;100332.88;;;6.50;100.00
67931;BME280;63902;52.000;5.954;2023-04-23T02:44:13;100323.31;;;6.46;100.00
67931;BME280;63902;52.000;5.954;2023-04-23T02:45:14;100324.22;;;6.47;100.00
67931;BME280;63902;52.000;5.954;2023-04-23T02:46:14;100325.94;;;6.48;100.00
67931;BME280;63902;52.000;5.954;2023-04-23T02:47:15;100318.03;;;6.48;100.00
67931;BME280;63902;52.000;5.954;2023-04-23T02:48:15;100318.94;;;6.47;100.00
67931;BME280;63902;52.000;5.954;2023-04-23T02:49:16;100322.47;;;6.46;100.00
67931;BME280;63902;52.000;5.954;2023-04-23T02:50:17;100323.31;;;6.46;100.00
67931;BME280;63902;52.000;5.954;2023-04-23T02:51:17;100308.53;;;6.42;100.00
67931;BME280;63902;52.000;5.954;2023-04-23T02:52:18;100321.63;;;6.45;100.00
67931;BME280;63902;52.000;5.954;2023-04-23T02:53:18;100315.41;;;6.46;100.00
67931;BME280;63902;52.000;5.954;2023-04-23T02:54:20;100314.72;;;6.41;100.00
67931;BME280;63902;52.000;5.954;2023-04-23T02:55:21;100312.84;;;6.45;100.00
67931;BME280;63902;52.000;5.954;2023-04-23T02:56:21;100315.53;;;6.43;100.00
67931;BME280;63902;52.000;5.954;2023-04-23T02:57:22;100312.84;;;6.45;100.00
67931;BME280;63902;52.000;5.954;2023-04-23T02:58:23;100321.66;;;6.44;100.00
67931;BME280;63902;52.000;5.954;2023-04-23T02:59:23;100317.31;;;6.43;100.00
67931;BME280;63902;52.000;5.954;2023-04-23T03:00:24;100316.44;;;6.42;100.00
67931;BME280;63902;52.000;5.954;2023-04-23T03:01:25;100310.31;;;6.42;100.00
67931;BME280;63902;52.000;5.954;2023-04-23T03:02:26;100312.88;;;6.43;100.00
67931;BME280;63902;52.000;5.954;2023-04-23T03:03:27;100307.63;;;6.43;100.00
67931;BME280;63902;52.000;5.954;2023-04-23T03:04:28;100315.41;;;6.46;100.00
67931;BME280;63902;52.000;5.954;2023-04-23T03:05:28;100314.53;;;6.47;100.00
67931;BME280;63902;52.000;5.954;2023-04-23T03:06:29;100313.59;;;6.48;100.00
67931;BME280;63902;52.000;5.954;2023-04-23T03:07:30;100313.56;;;6.50;100.00
67931;BME280;63902;52.000;5.954;2023-04-23T03:08:30;100310.06;;;6.49;100.00
67931;BME280;63902;52.000;5.954;2023-04-23T03:09:32;100309.16;;;6.50;100.00
67931;BME280;63902;52.000;5.954;2023-04-23T03:10:33;100304.75;;;6.51;100.00
67931;BME280;63902;52.000;5.954;2023-04-23T03:11:33;100304.75;;;6.51;100.00
67931;BME280;63902;52.000;5.954;2023-04-23T03:12:34;100306.53;;;6.50;100.00
67931;BME280;63902;52.000;5.954;2023-04-23T03:13:34;100303.03;;;6.50;100.00
67931;BME280;63902;52.000;5.954;2023-04-23T03:14:35;100310.13;;;6.48;100.00
67931;BME280;63902;52.000;5.954;2023-04-23T03:15:35;100306.66;;;6.46;100.00
67931;BME280;63902;52.000;5.954;2023-04-23T03:16:35;100310.22;;;6.45;100.00
67931;BME280;63902;52.000;5.954;2023-04-23T03:17:36;100307.63;;;6.43;100.00
67931;BME280;63902;52.000;5.954;2023-04-23T03:18:36;100305.91;;;6.42;100.00
67931;BME280;63902;52.000;5.954;2023-04-23T03:19:37;100301.56;;;6.41;100.00
67931;BME280;63902;52.000;5.954;2023-04-23T03:20:37;100304.19;;;6.41;100.00
67931;BME280;63902;52.000;5.954;2023-04-23T03:21:38;100306.00;;;6.39;100.00
67931;BME280;63902;52.000;5.954;2023-04-23T03:22:38;100291.16;;;6.37;100.00
67931;BME280;63902;52.000;5.954;2023-04-23T03:23:39;100307.84;;;6.36;100.00
67931;BME280;63902;52.000;5.954;2023-04-23T03:24:41;100303.50;;;6.35;100.00
67931;BME280;63902;52.000;5.954;2023-04-23T03:25:41;100302.69;;;6.33;100.00
67931;BME280;63902;52.000;5.954;2023-04-23T03:26:42;100308.06;;;6.30;100.00
67931;BME280;63902;52.000;5.954;2023-04-23T03:27:42;100311.50;;;6.32;100.00
67931;BME280;63902;52.000;5.954;2023-04-23T03:28:43;100313.31;;;6.30;100.00
67931;BME280;63902;52.000;5.954;2023-04-23T03:29:43;100308.13;;;6.28;100.00
67931;BME280;63902;52.000;5.954;2023-04-23T03:30:44;100311.66;;;6.27;100.00
67931;BME280;63902;52.000;5.954;2023-04-23T03:31:44;100308.31;;;6.22;100.00
67931;BME280;63902;52.000;5.954;2023-04-23T03:32:45;100312.59;;;6.24;100.00
67931;BME280;63902;52.000;5.954;2023-04-23T03:33:46;100315.31;;;6.23;100.00
67931;BME280;63902;52.000;5.954;2023-04-23T03:34:46;100310.06;;;6.21;100.00
67931;BME280;63902;52.000;5.954;2023-04-23T03:35:46;100303.94;;;6.21;100.00
67931;BME280;63902;52.000;5.954;2023-04-23T03:36:47;100306.59;;;6.21;100.00
67931;BME280;63902;52.000;5.954;2023-04-23T03:37:48;100310.97;;;6.22;100.00
67931;BME280;63902;52.000;5.954;2023-04-23T03:38:48;100307.44;;;6.21;100.00
67931;BME280;63902;52.000;5.954;2023-04-23T03:39:50;100304.88;;;6.20;100.00
67931;BME280;63902;52.000;5.954;2023-04-23T03:40:51;100300.50;;;6.19;100.00
67931;BME280;63902;52.000;5.954;2023-04-23T03:41:51;100302.28;;;6.18;100.00
67931;BME280;63902;52.000;5.954;2023-04-23T03:42:52;100306.69;;;6.18;100.00
67931;BME280;63902;52.000;5.954;2023-04-23T03:43:52;100297.94;;;6.17;100.00
67931;BME280;63902;52.000;5.954;2023-04-23T03:44:53;100283.19;;;6.12;100.00
67931;BME280;63902;52.000;5.954;2023-04-23T03:45:53;100293.41;;;6.21;100.00
67931;BME280;63902;52.000;5.954;2023-04-23T03:46:53;100297.81;;;6.20;100.00
67931;BME280;63902;52.000;5.954;2023-04-23T03:47:54;100302.28;;;6.18;100.00
67931;BME280;63902;52.000;5.954;2023-04-23T03:48:54;100303.22;;;6.16;100.00
67931;BME280;63902;52.000;5.954;2023-04-23T03:49:55;100305.00;;;6.15;100.00
67931;BME280;63902;52.000;5.954;2023-04-23T03:50:56;100303.22;;;6.16;100.00
67931;BME280;63902;52.000;5.954;2023-04-23T03:51:57;100302.38;;;6.15;100.00
67931;BME280;63902;52.000;5.954;2023-04-23T03:52:57;100295.31;;;6.16;100.00
67931;BME280;63902;52.000;5.954;2023-04-23T03:53:58;100303.22;;;6.16;100.00
67931;BME280;63902;52.000;5.954;2023-04-23T03:55:00;100297.16;;;6.14;100.00
67931;BME280;63902;52.000;5.954;2023-04-23T03:56:00;100304.16;;;6.15;100.00
67931;BME280;63902;52.000;5.954;2023-04-23T03:57:01;100304.19;;;6.13;100.00
67931;BME280;63902;52.000;5.954;2023-04-23T03:58:01;100295.41;;;6.13;100.00
67931;BME280;63902;52.000;5.954;2023-04-23T03:59:02;100289.31;;;6.12;100.00
67931;BME280;63902;52.000;5.954;2023-04-23T04:00:04;100297.19;;;6.12;100.00
67931;BME280;63902;52.000;5.954;2023-04-23T04:01:05;100272.22;;;5.97;100.00
67931;BME280;63902;52.000;5.954;2023-04-23T04:02:06;100296.34;;;6.12;100.00
67931;BME280;63902;52.000;5.954;2023-04-23T04:03:06;100289.38;;;6.11;100.00
67931;BME280;63902;52.000;5.954;2023-04-23T04:04:07;100296.38;;;6.10;100.00
67931;BME280;63902;52.000;5.954;2023-04-23T04:05:07;100287.63;;;6.10;100.00
67931;BME280;63902;52.000;5.954;2023-04-23T04:06:08;100284.13;;;6.09;100.00
67931;BME280;63902;52.000;5.954;2023-04-23T04:07:09;100281.50;;;6.09;100.00
67931;BME280;63902;52.000;5.954;2023-04-23T04:08:09;100261.78;;;5.94;100.00
67931;BME280;63902;52.000;5.954;2023-04-23T04:09:10;100272.00;;;6.05;100.00
67931;BME280;63902;52.000;5.954;2023-04-23T04:10:11;100278.03;;;6.07;100.00
67931;BME280;63902;52.000;5.954;2023-04-23T04:11:12;100275.47;;;6.05;100.00
67931;BME280;63902;52.000;5.954;2023-04-23T04:12:12;100281.53;;;6.08;100.00
67931;BME280;63902;52.000;5.954;2023-04-23T04:13:13;100284.16;;;6.08;100.00
67931;BME280;63902;52.000;5.954;2023-04-23T04:14:13;100283.28;;;6.09;100.00
67931;BME280;63902;52.000;5.954;2023-04-23T04:15:14;100282.47;;;6.07;100.00
67931;BME280;63902;52.000;5.954;2023-04-23T04:16:14;100278.91;;;6.08;100.00
67931;BME280;63902;52.000;5.954;2023-04-23T04:17:15;100280.66;;;6.09;100.00
67931;BME280;63902;52.000;5.954;2023-04-23T04:18:15;100276.25;;;6.09;100.00
67931;BME280;63902;52.000;5.954;2023-04-23T04:19:16;100255.66;;;5.94;100.00
67931;BME280;63902;52.000;5.954;2023-04-23T04:20:16;100282.25;;;6.13;100.00
67931;BME280;63902;52.000;5.954;2023-04-23T04:21:17;100282.31;;;6.11;100.00
67931;BME280;63902;52.000;5.954;2023-04-23T04:22:18;100289.28;;;6.14;100.00
67931;BME280;63902;52.000;5.954;2023-04-23T04:23:18;100292.69;;;6.16;100.00
67931;BME280;63902;52.000;5.954;2023-04-23T04:24:19;100287.38;;;6.17;100.00
67931;BME280;63902;52.000;5.954;2023-04-23T04:25:21;100288.34;;;6.15;100.00
67931;BME280;63902;52.000;5.954;2023-04-23T04:26:21;100290.88;;;6.18;100.00
67931;BME280;63902;52.000;5.954;2023-04-23T04:27:22;100284.69;;;6.19;100.00
67931;BME280;63902;52.000;5.954;2023-04-23T04:28:22;100281.28;;;6.17;100.00
67931;BME280;63902;52.000;5.954;2023-04-23T04:29:22;100289.16;;;6.17;100.00
67931;BME280;63902;52.000;5.954;2023-04-23T04:30:23;100283.09;;;6.15;100.00
67931;BME280;63902;52.000;5.954;2023-04-23T04:31:24;100283.03;;;6.16;100.00
67931;BME280;63902;52.000;5.954;2023-04-23T04:32:24;100278.78;;;6.12;100.00
67931;BME280;63902;52.000;5.954;2023-04-23T04:33:25;100290.88;;;6.18;100.00
67931;BME280;63902;52.000;5.954;2023-04-23T04:34:25;100295.22;;;6.19;100.00
67931;BME280;63902;52.000;5.954;2023-04-23T04:35:26;100289.06;;;6.20;100.00
67931;BME280;63902;52.000;5.954;2023-04-23T04:36:26;100286.44;;;6.20;100.00
67931;BME280;63902;52.000;5.954;2023-04-23T04:37:27;100289.94;;;6.20;100.00
67931;BME280;63902;52.000;5.954;2023-04-23T04:38:27;100290.78;;;6.21;100.00
67931;BME280;63902;52.000;5.954;2023-04-23T04:39:28;100289.00;;;6.21;100.00
67931;BME280;63902;52.000;5.954;2023-04-23T04:40:29;100282.94;;;6.19;100.00
67931;BME280;63902;52.000;5.954;2023-04-23T04:41:30;100287.31;;;6.19;100.00
67931;BME280;63902;52.000;5.954;2023-04-23T04:42:30;100282.94;;;6.19;100.00
67931;BME280;63902;52.000;5.954;2023-04-23T04:43:31;100285.63;;;6.18;100.00
67931;BME280;63902;52.000;5.954;2023-04-23T04:44:31;100302.28;;;6.18;100.00
67931;BME280;63902;52.000;5.954;2023-04-23T04:45:32;100293.59;;;6.16;100.00
67931;BME280;63902;52.000;5.954;2023-04-23T04:46:32;100292.66;;;6.17;100.00
67931;BME280;63902;52.000;5.954;2023-04-23T04:47:33;100292.66;;;6.17;100.00
67931;BME280;63902;52.000;5.954;2023-04-23T04:48:33;100284.91;;;6.13;100.00
67931;BME280;63902;52.000;5.954;2023-04-23T04:49:34;100290.06;;;6.16;100.00
67931;BME280;63902;52.000;5.954;2023-04-23T04:50:34;100290.88;;;6.18;100.00
67931;BME280;63902;52.000;5.954;2023-04-23T04:51:36;100290.84;;;6.19;100.00
67931;BME280;63902;52.000;5.954;2023-04-23T04:52:36;100292.56;;;6.20;100.00
67931;BME280;63902;52.000;5.954;2023-04-23T04:53:37;100289.88;;;6.22;100.00
67931;BME280;63902;52.000;5.954;2023-04-23T04:54:37;100297.72;;;6.23;100.00
67931;BME280;63902;52.000;5.954;2023-04-23T04:55:39;100295.94;;;6.24;100.00
67931;BME280;63902;52.000;5.954;2023-04-23T04:56:39;100295.91;;;6.25;100.00
67931;BME280;63902;52.000;5.954;2023-04-23T04:57:40;100292.31;;;6.28;100.00
67931;BME280;63902;52.000;5.954;2023-04-23T04:58:40;100285.31;;;6.27;100.00
67931;BME280;63902;52.000;5.954;2023-04-23T04:59:41;100298.34;;;6.32;100.00
67931;BME280;63902;52.000;5.954;2023-04-23T05:00:41;100295.69;;;6.33;100.00
67931;BME280;63902;52.000;5.954;2023-04-23T05:01:42;100294.75;;;6.34;100.00
67931;BME280;63902;52.000;5.954;2023-04-23T05:02:43;100295.63;;;6.35;100.00
67931;BME280;63902;52.000;5.954;2023-04-23T05:03:43;100290.25;;;6.38;100.00
67931;BME280;63902;52.000;5.954;2023-04-23T05:04:43;100297.25;;;6.39;100.00
67931;BME280;63902;52.000;5.954;2023-04-23T05:05:44;100298.94;;;6.41;100.00
67931;BME280;63902;52.000;5.954;2023-04-23T05:06:44;100297.16;;;6.42;100.00
67931;BME280;63902;52.000;5.954;2023-04-23T05:07:45;100296.19;;;6.44;100.00
67931;BME280;63902;52.000;5.954;2023-04-23T05:08:45;100286.44;;;6.46;100.00
67931;BME280;63902;52.000;5.954;2023-04-23T05:09:46;100293.47;;;6.47;100.00
67931;BME280;63902;52.000;5.954;2023-04-23T05:10:48;100286.34;;;6.49;100.00
67931;BME280;63902;52.000;5.954;2023-04-23T05:11:49;100289.88;;;6.50;100.00
67931;BME280;63902;52.000;5.954;2023-04-23T05:12:49;100281.88;;;6.52;100.00
67931;BME280;63902;52.000;5.954;2023-04-23T05:13:50;100291.47;;;6.54;100.00
67931;BME280;63902;52.000;5.954;2023-04-23T05:14:50;100291.44;;;6.56;100.00
67931;BME280;63902;52.000;5.954;2023-04-23T05:15:51;100287.91;;;6.55;100.00
67931;BME280;63902;52.000;5.954;2023-04-23T05:16:51;100293.16;;;6.57;100.00
67931;BME280;63902;52.000;5.954;2023-04-23T05:17:52;100290.47;;;6.58;100.00